createdAt,value
2022-10-31T00:00:18.563Z,30.104
2022-10-31T00:05:18.433Z,30.104
2022-10-31T00:10:15.865Z,30.106
2022-10-31T00:15:18.468Z,30.113
2022-10-31T00:20:18.436Z,30.112
2022-10-31T00:25:18.452Z,30.115
2022-10-31T00:30:18.471Z,30.118
2022-10-31T00:35:18.456Z,30.118
2022-10-31T00:40:18.905Z,30.117
2022-10-31T00:45:18.485Z,30.116
2022-10-31T00:50:18.469Z,30.116
2022-10-31T00:55:18.400Z,30.116
2022-10-31T01:00:18.433Z,30.115
2022-10-31T01:05:18.497Z,30.112
2022-10-31T01:10:18.413Z,30.114
2022-10-31T01:15:18.692Z,30.112
2022-10-31T01:20:18.446Z,30.114
2022-10-31T01:25:18.522Z,30.113
2022-10-31T01:30:15.505Z,30.115
2022-10-31T01:35:18.491Z,30.115
2022-10-31T01:40:18.472Z,30.114
2022-10-31T01:45:18.469Z,30.114
2022-10-31T01:50:18.886Z,30.113
2022-10-31T01:55:18.485Z,30.114
2022-10-31T02:00:18.481Z,30.112
2022-10-31T02:05:18.541Z,30.111
2022-10-31T02:10:18.478Z,30.112
2022-10-31T02:15:18.477Z,30.113
2022-10-31T02:20:18.496Z,30.112
2022-10-31T02:25:18.747Z,30.111
2022-10-31T02:30:18.481Z,30.110
2022-10-31T02:35:15.481Z,30.113
2022-10-31T02:40:15.574Z,30.114
2022-10-31T02:45:18.523Z,30.114
2022-10-31T02:50:15.484Z,30.113
2022-10-31T02:55:18.525Z,30.110
2022-10-31T03:00:18.905Z,30.108
2022-10-31T03:05:18.587Z,30.108
2022-10-31T03:10:18.552Z,30.108
2022-10-31T03:15:18.496Z,30.108
2022-10-31T03:20:18.542Z,30.105
2022-10-31T03:25:15.484Z,30.102
2022-10-31T03:30:15.640Z,30.099
2022-10-31T03:35:15.997Z,30.096
2022-10-31T03:40:15.556Z,30.094
2022-10-31T03:45:18.542Z,30.092
2022-10-31T03:50:18.543Z,30.092
2022-10-31T03:55:18.557Z,30.088
2022-10-31T04:00:19.838Z,30.087
2022-10-31T04:05:20.224Z,30.086
2022-10-31T04:10:19.793Z,30.088
2022-10-31T04:15:19.814Z,30.089
2022-10-31T04:20:19.790Z,30.090
2022-10-31T04:25:16.770Z,30.094
2022-10-31T04:30:19.770Z,30.094
2022-10-31T04:35:16.857Z,30.094
2022-10-31T04:40:20.205Z,30.095
2022-10-31T04:45:20.148Z,30.096
2022-10-31T04:50:19.855Z,30.093
2022-10-31T04:55:19.797Z,30.091
2022-10-31T05:00:19.830Z,30.093
2022-10-31T05:05:19.862Z,30.092
2022-10-31T05:10:16.869Z,30.090
2022-10-31T05:15:20.241Z,30.087
2022-10-31T05:20:19.830Z,30.087
2022-10-31T05:25:19.773Z,30.086
2022-10-31T05:30:19.844Z,30.087
2022-10-31T05:35:16.834Z,30.082
2022-10-31T05:40:16.897Z,30.081
2022-10-31T05:45:16.850Z,30.083
2022-10-31T05:50:20.201Z,30.082
2022-10-31T05:55:16.869Z,30.079
2022-10-31T06:00:19.824Z,30.077
2022-10-31T06:05:19.823Z,30.077
2022-10-31T06:10:19.822Z,30.077
2022-10-31T06:15:23.807Z,30.076
2022-10-31T06:20:19.887Z,30.073
2022-10-31T06:25:16.945Z,30.074
2022-10-31T06:30:19.893Z,30.072
2022-10-31T06:35:19.836Z,30.074
2022-10-31T06:40:17.048Z,30.073
2022-10-31T06:45:19.889Z,30.072
2022-10-31T06:50:19.903Z,30.069
2022-10-31T06:55:20.079Z,30.072
2022-10-31T07:00:19.863Z,30.070
2022-10-31T07:05:16.859Z,30.069
2022-10-31T07:10:19.885Z,30.066
2022-10-31T07:15:16.914Z,30.065
2022-10-31T07:20:16.919Z,30.067
2022-10-31T07:25:16.894Z,30.066
2022-10-31T07:30:17.273Z,30.065
2022-10-31T07:35:16.890Z,30.064
2022-10-31T07:40:16.927Z,30.060
2022-10-31T07:45:19.880Z,30.063
2022-10-31T07:50:16.956Z,30.065
2022-10-31T07:55:16.898Z,30.062
2022-10-31T08:00:16.953Z,30.063
2022-10-31T08:05:17.198Z,30.062
2022-10-31T08:10:19.921Z,30.061
2022-10-31T08:15:19.901Z,30.057
2022-10-31T08:20:16.904Z,30.056
2022-10-31T08:25:19.943Z,30.052
2022-10-31T08:30:20.020Z,30.052
2022-10-31T08:35:20.338Z,30.051
2022-10-31T08:40:20.027Z,30.048
2022-10-31T08:45:19.883Z,30.045
2022-10-31T08:50:19.913Z,30.044
2022-10-31T08:55:19.870Z,30.048
2022-10-31T09:00:19.921Z,30.045
2022-10-31T09:05:19.931Z,30.049
2022-10-31T09:10:20.199Z,30.053
2022-10-31T09:15:19.904Z,30.057
2022-10-31T09:20:19.912Z,30.060
2022-10-31T09:25:19.942Z,30.060
2022-10-31T09:30:19.925Z,30.060
2022-10-31T09:35:23.105Z,30.060
2022-10-31T09:40:19.951Z,30.057
2022-10-31T09:45:17.204Z,30.056
2022-10-31T09:50:19.928Z,30.055
2022-10-31T09:55:19.898Z,30.056
2022-10-31T10:00:19.923Z,30.054
2022-10-31T10:05:19.892Z,30.050
2022-10-31T10:10:20.114Z,30.050
2022-10-31T10:15:20.383Z,30.052
2022-10-31T10:20:20.916Z,30.051
2022-10-31T10:25:16.961Z,30.053
2022-10-31T10:30:20.005Z,30.053
2022-10-31T10:35:16.986Z,30.053
2022-10-31T10:40:20.092Z,30.049
2022-10-31T10:45:20.000Z,30.050
2022-10-31T10:50:20.341Z,30.051
2022-10-31T10:55:17.005Z,30.050
2022-10-31T11:00:16.969Z,30.048
2022-10-31T11:05:16.993Z,30.050
2022-10-31T11:10:17.054Z,30.048
2022-10-31T11:15:17.058Z,30.043
2022-10-31T11:20:20.126Z,30.045
2022-10-31T11:25:17.271Z,30.043
2022-10-31T11:30:17.096Z,30.042
2022-10-31T11:35:19.984Z,30.045
2022-10-31T11:40:19.995Z,30.049
2022-10-31T11:45:17.040Z,30.049
2022-10-31T11:50:20.027Z,30.050
2022-10-31T11:55:20.380Z,30.053
2022-10-31T12:00:19.989Z,30.053
2022-10-31T12:05:17.048Z,30.052
2022-10-31T12:10:17.005Z,30.053
2022-10-31T12:15:19.985Z,30.053
2022-10-31T12:20:20.022Z,30.053
2022-10-31T12:25:20.000Z,30.052
2022-10-31T12:30:20.469Z,30.052
2022-10-31T12:35:20.000Z,30.050
2022-10-31T12:40:20.018Z,30.048
2022-10-31T12:45:20.003Z,30.046
2022-10-31T12:50:19.988Z,30.047
2022-10-31T12:55:17.011Z,30.046
2022-10-31T13:00:20.071Z,30.043
2022-10-31T13:05:17.385Z,30.045
2022-10-31T13:10:20.046Z,30.040
2022-10-31T13:15:20.079Z,30.041
2022-10-31T13:20:20.067Z,30.046
2022-10-31T13:25:20.065Z,30.045
2022-10-31T13:30:20.031Z,30.043
2022-10-31T13:35:20.453Z,30.042
2022-10-31T13:40:16.975Z,30.045
2022-10-31T13:45:17.067Z,30.044
2022-10-31T13:50:19.291Z,30.045
2022-10-31T13:55:17.048Z,30.041
2022-10-31T14:00:17.054Z,30.042
2022-10-31T14:05:20.075Z,30.039
2022-10-31T14:10:20.453Z,30.036
2022-10-31T14:15:20.055Z,30.036
2022-10-31T14:20:16.969Z,30.037
2022-10-31T14:25:20.064Z,30.038
2022-10-31T14:30:20.074Z,30.038
2022-10-31T14:35:21.518Z,30.037
2022-10-31T14:40:17.112Z,30.036
2022-10-31T14:45:17.498Z,30.033
2022-10-31T14:50:17.079Z,30.031
2022-10-31T14:55:17.099Z,30.029
2022-10-31T15:00:16.928Z,30.030
2022-10-31T15:05:20.062Z,30.030
2022-10-31T15:10:17.144Z,30.026
2022-10-31T15:15:20.454Z,30.023
2022-10-31T15:20:20.118Z,30.024
2022-10-31T15:25:20.038Z,30.021
2022-10-31T15:30:20.067Z,30.021
2022-10-31T15:35:20.083Z,30.020
2022-10-31T15:40:17.126Z,30.020
2022-10-31T15:45:20.121Z,30.018
2022-10-31T15:50:17.404Z,30.014
2022-10-31T15:55:17.091Z,30.011
2022-10-31T16:00:17.135Z,30.010
2022-10-31T16:05:17.099Z,30.009
2022-10-31T16:10:17.139Z,30.010
2022-10-31T16:15:20.120Z,30.009
2022-10-31T16:20:17.137Z,30.006
2022-10-31T16:25:20.422Z,30.003
2022-10-31T16:30:20.102Z,29.996
2022-10-31T16:35:20.124Z,29.995
2022-10-31T16:40:20.088Z,29.992
2022-10-31T16:45:20.110Z,29.991
2022-10-31T16:50:17.144Z,29.990
2022-10-31T16:55:20.100Z,29.986
2022-10-31T17:00:17.424Z,29.981
2022-10-31T17:05:17.151Z,29.975
2022-10-31T17:10:17.154Z,29.974
2022-10-31T17:15:17.171Z,29.973
2022-10-31T17:20:20.144Z,29.968
2022-10-31T17:25:20.087Z,29.965
2022-10-31T17:30:20.390Z,29.964
2022-10-31T17:35:17.074Z,29.960
2022-10-31T17:40:20.130Z,29.961
2022-10-31T17:45:20.150Z,29.959
2022-10-31T17:50:20.154Z,29.958
2022-10-31T17:55:20.081Z,29.958
2022-10-31T18:00:20.122Z,29.955
2022-10-31T18:05:17.445Z,29.953
2022-10-31T18:10:17.168Z,29.952
2022-10-31T18:15:20.161Z,29.951
2022-10-31T18:20:17.171Z,29.948
2022-10-31T18:25:17.152Z,29.950
2022-10-31T18:30:17.194Z,29.946
2022-10-31T18:35:20.567Z,29.947
2022-10-31T18:40:20.182Z,29.946
2022-10-31T18:45:33.919Z,29.942
2022-10-31T18:50:20.153Z,29.941
2022-10-31T18:55:16.967Z,29.940
2022-10-31T19:00:20.150Z,29.938
2022-10-31T19:05:20.162Z,29.938
2022-10-31T19:10:20.610Z,29.934
2022-10-31T19:15:20.154Z,29.938
2022-10-31T19:20:17.224Z,29.938
2022-10-31T19:25:17.159Z,29.934
2022-10-31T19:30:17.212Z,29.930
2022-10-31T19:35:17.185Z,29.930
2022-10-31T19:40:20.232Z,29.928
2022-10-31T19:45:20.483Z,29.928
2022-10-31T19:50:20.169Z,29.924
2022-10-31T19:55:20.182Z,29.929
2022-10-31T20:00:20.186Z,29.923
2022-10-31T20:05:20.141Z,29.924
2022-10-31T20:10:20.231Z,29.922
2022-10-31T20:15:20.219Z,29.921
2022-10-31T20:20:17.490Z,29.920
2022-10-31T20:25:17.260Z,29.923
2022-10-31T20:30:17.285Z,29.925
2022-10-31T20:35:17.237Z,29.926
2022-10-31T20:40:17.249Z,29.924
2022-10-31T20:45:20.227Z,29.926
2022-10-31T20:50:20.617Z,29.924
2022-10-31T20:55:20.191Z,29.923
2022-10-31T21:00:20.196Z,29.923
2022-10-31T21:05:20.249Z,29.917
2022-10-31T21:10:20.204Z,29.917
2022-10-31T21:15:20.219Z,29.921
2022-10-31T21:20:20.228Z,29.924
2022-10-31T21:25:20.695Z,29.923
2022-10-31T21:30:17.179Z,29.920
2022-10-31T21:35:20.225Z,29.922
2022-10-31T21:40:20.248Z,29.927
2022-10-31T21:45:20.259Z,29.925
2022-10-31T21:50:17.248Z,29.926
2022-10-31T21:55:17.230Z,29.925
2022-10-31T22:00:17.791Z,29.927
2022-10-31T22:05:17.285Z,29.926
2022-10-31T22:10:20.294Z,29.927
2022-10-31T22:15:20.267Z,29.928
2022-10-31T22:20:20.255Z,29.931
2022-10-31T22:25:20.218Z,29.931
2022-10-31T22:30:20.624Z,29.933
2022-10-31T22:35:20.267Z,29.935
2022-10-31T22:40:20.272Z,29.935
2022-10-31T22:45:17.113Z,29.934
2022-10-31T22:50:17.098Z,29.937
2022-10-31T22:55:20.487Z,29.937
2022-10-31T23:00:20.262Z,29.941
2022-10-31T23:05:20.678Z,29.944
2022-10-31T23:10:20.329Z,29.942
2022-10-31T23:15:20.261Z,29.943
2022-10-31T23:20:17.309Z,29.942
2022-10-31T23:25:17.325Z,29.942
2022-10-31T23:30:17.312Z,29.943
2022-10-31T23:35:17.326Z,29.945
2022-10-31T23:40:20.745Z,29.942
2022-10-31T23:45:20.301Z,29.942
2022-10-31T23:50:17.350Z,29.942
2022-10-31T23:55:20.319Z,29.941
